createdAt,value
2019-04-11T00:01:42.100Z,8.80
2019-04-11T00:04:08.602Z,9.17
2019-04-11T00:06:37.119Z,8.87
2019-04-11T00:09:08.862Z,8.37
2019-04-11T00:11:37.763Z,8.27
2019-04-11T00:14:07.355Z,9.53
2019-04-11T00:16:36.036Z,10.33
2019-04-11T00:19:05.220Z,12.93
2019-04-11T00:21:34.912Z,13.77
2019-04-11T00:24:03.546Z,14.43
2019-04-11T00:26:32.743Z,13.87
2019-04-11T00:29:02.062Z,12.63
2019-04-11T00:31:31.345Z,12.43
2019-04-11T00:34:00.752Z,11.50
2019-04-11T00:36:30.334Z,12.07
2019-04-11T00:38:59.373Z,12.90
2019-04-11T00:41:28.152Z,11.03
2019-04-11T00:43:56.754Z,10.80
2019-04-11T00:46:26.538Z,6.50
2019-04-11T00:48:55.026Z,6.80
2019-04-11T00:51:23.615Z,7.93
2019-04-11T00:53:53.917Z,6.97
2019-04-11T00:56:22.714Z,6.33
2019-04-11T00:58:52.049Z,5.80
2019-04-11T01:01:21.870Z,5.20
2019-04-11T01:03:51.499Z,5.07
2019-04-11T01:06:20.446Z,5.60
2019-04-11T01:08:49.089Z,5.73
2019-04-11T01:11:17.485Z,5.70
2019-04-11T01:13:50.879Z,6.03
2019-04-11T01:16:45.131Z,5.00
2019-04-11T01:19:14.283Z,4.73
2019-04-11T01:21:42.903Z,5.03
2019-04-11T01:24:11.402Z,5.00
2019-04-11T01:26:41.263Z,5.03
2019-04-11T01:29:09.877Z,5.30
2019-04-11T01:31:39.707Z,5.20
2019-04-11T01:34:08.647Z,5.37
2019-04-11T01:36:37.396Z,6.00
2019-04-11T01:39:23.264Z,6.17
2019-04-11T01:41:53.007Z,5.77
2019-04-11T01:44:21.475Z,5.23
2019-04-11T01:46:50.683Z,5.53
2019-04-11T01:49:21.901Z,5.67
2019-04-11T01:51:50.359Z,5.40
2019-04-11T01:54:19.567Z,5.73
2019-04-11T01:56:48.141Z,5.00
2019-04-11T01:59:17.672Z,4.37
2019-04-11T02:01:57.951Z,4.33
2019-04-11T02:04:32.116Z,5.73
2019-04-11T02:07:00.509Z,5.90
2019-04-11T02:09:29.018Z,7.30
2019-04-11T02:11:58.227Z,6.77
2019-04-11T02:14:27.876Z,6.10
2019-04-11T02:16:57.102Z,5.53
2019-04-11T02:19:25.920Z,4.60
2019-04-11T02:21:56.542Z,8.77
2019-04-11T02:24:41.741Z,12.17
2019-04-11T02:27:19.127Z,10.37
2019-04-11T02:29:48.814Z,7.40
2019-04-11T02:32:18.548Z,10.20
2019-04-11T02:34:48.718Z,9.73
2019-04-11T02:37:19.697Z,12.00
2019-04-11T02:39:49.405Z,12.07
2019-04-11T02:42:19.027Z,10.00
2019-04-11T02:45:05.895Z,8.87
2019-04-11T02:47:22.840Z,8.27
2019-04-11T02:49:49.494Z,8.30
2019-04-11T02:52:19.467Z,8.57
2019-04-11T02:54:49.315Z,8.10
2019-04-11T02:57:18.341Z,8.10
2019-04-11T02:59:49.060Z,8.13
2019-04-11T03:02:19.540Z,8.17
2019-04-11T03:04:48.312Z,7.83
2019-04-11T03:07:17.257Z,7.77
2019-04-11T03:09:46.853Z,10.03
2019-04-11T03:12:19.090Z,10.37
2019-04-11T03:15:05.474Z,10.30
2019-04-11T03:17:23.103Z,10.60
2019-04-11T03:20:04.077Z,10.33
2019-04-11T03:22:20.276Z,10.70
2019-04-11T03:24:49.212Z,10.83
2019-04-11T03:27:19.937Z,11.23
2019-04-11T03:29:49.345Z,11.10
2019-04-11T03:33:08.015Z,11.50
2019-04-11T03:35:37.723Z,13.80
2019-04-11T03:37:47.460Z,13.47
2019-04-11T03:40:07.976Z,11.73
2019-04-11T03:42:38.133Z,11.47
2019-04-11T03:45:16.891Z,12.13
2019-04-11T03:47:36.145Z,11.23
2019-04-11T03:50:00.261Z,10.73
2019-04-11T03:52:23.808Z,11.83
2019-04-11T03:54:53.990Z,12.20
2019-04-11T03:57:23.627Z,11.10
2019-04-11T03:59:52.236Z,12.10
2019-04-11T04:02:24.553Z,12.00
2019-04-11T04:04:53.940Z,12.53
2019-04-11T04:07:23.485Z,12.33
2019-04-11T04:09:53.791Z,13.20
2019-04-11T04:12:22.872Z,13.00
2019-04-11T04:15:29.627Z,14.37
2019-04-11T04:17:55.342Z,13.80
2019-04-11T04:20:53.277Z,14.63
2019-04-11T04:23:25.291Z,15.20
2019-04-11T04:25:54.448Z,16.27
2019-04-11T04:28:23.701Z,16.47
2019-04-11T04:30:53.822Z,17.20
2019-04-11T04:33:23.130Z,16.37
2019-04-11T04:35:52.429Z,16.03
2019-04-11T04:38:23.320Z,17.23
2019-04-11T04:41:07.536Z,16.30
2019-04-11T04:43:25.156Z,15.57
2019-04-11T04:46:11.679Z,17.50
2019-04-11T04:48:26.921Z,18.70
2019-04-11T04:50:57.626Z,20.13
2019-04-11T04:53:28.221Z,19.13
2019-04-11T04:55:57.379Z,18.50
2019-04-11T04:58:26.514Z,19.47
2019-04-11T05:00:56.753Z,20.60
2019-04-11T05:03:26.755Z,19.33
2019-04-11T05:05:55.528Z,19.23
2019-04-11T05:08:24.975Z,19.20
2019-04-11T05:10:53.704Z,19.40
2019-04-11T05:13:23.681Z,19.47
2019-04-11T05:16:04.656Z,17.97
2019-04-11T05:18:23.685Z,17.63
2019-04-11T05:20:52.787Z,17.67
2019-04-11T05:23:21.443Z,18.57
2019-04-11T05:25:50.872Z,18.67
2019-04-11T05:28:19.363Z,17.57
2019-04-11T05:30:49.010Z,15.87
2019-04-11T05:33:17.994Z,14.73
2019-04-11T05:35:46.442Z,14.93
2019-04-11T05:38:15.021Z,14.73
2019-04-11T05:40:46.118Z,16.53
2019-04-11T05:43:15.559Z,17.10
2019-04-11T05:45:44.104Z,15.90
2019-04-11T05:48:25.614Z,15.33
2019-04-11T05:50:54.134Z,14.87
2019-04-11T05:53:24.927Z,14.07
2019-04-11T05:55:53.531Z,14.23
2019-04-11T05:58:22.014Z,14.13
2019-04-11T06:00:56.446Z,14.83
2019-04-11T06:03:26.149Z,13.53
2019-04-11T06:06:20.495Z,15.60
2019-04-11T06:08:49.438Z,15.23
2019-04-11T06:11:24.144Z,14.30
2019-04-11T06:14:07.473Z,13.90
2019-04-11T06:16:43.604Z,14.03
2019-04-11T06:19:25.018Z,15.07
2019-04-11T06:21:58.138Z,12.90
2019-04-11T06:24:42.534Z,13.13
2019-04-11T06:27:35.569Z,12.10
2019-04-11T06:30:38.029Z,9.73
2019-04-11T06:33:20.622Z,10.43
2019-04-11T06:36:09.560Z,9.20
2019-04-11T06:38:58.678Z,5.87
2019-04-11T06:41:43.037Z,7.50
2019-04-11T06:44:18.964Z,8.53
2019-04-11T06:47:05.256Z,9.40
2019-04-11T06:49:56.236Z,9.00
2019-04-11T06:52:26.515Z,9.50
2019-04-11T06:55:13.409Z,9.53
2019-04-11T06:57:42.436Z,11.93
2019-04-11T07:00:12.594Z,9.40
2019-04-11T07:02:44.520Z,7.63
2019-04-11T07:05:14.049Z,9.03
2019-04-11T07:07:46.305Z,13.00
2019-04-11T07:10:15.952Z,6.73
2019-04-11T07:12:54.397Z,7.00
2019-04-11T07:15:25.220Z,7.20
2019-04-11T07:18:12.030Z,7.23
2019-04-11T07:21:08.928Z,6.73
2019-04-11T07:23:55.630Z,6.00
2019-04-11T07:26:55.514Z,6.50
2019-04-11T07:29:37.964Z,8.80
2019-04-11T07:32:32.048Z,12.10
2019-04-11T07:35:32.077Z,7.57
2019-04-11T07:38:01.095Z,6.80
2019-04-11T07:41:04.696Z,6.57
2019-04-11T07:43:36.284Z,7.20
2019-04-11T07:46:25.023Z,6.70
2019-04-11T07:49:03.615Z,6.63
2019-04-11T07:51:34.696Z,5.60
2019-04-11T07:54:06.020Z,5.43
2019-04-11T07:56:55.604Z,5.67
2019-04-11T07:59:42.209Z,6.10
2019-04-11T08:02:49.115Z,5.47
2019-04-11T08:05:40.901Z,5.37
2019-04-11T08:08:39.803Z,7.20
2019-04-11T08:11:35.805Z,5.40
2019-04-11T08:14:24.430Z,4.77
2019-04-11T08:17:12.460Z,4.27
2019-04-11T08:19:59.628Z,4.93
2019-04-11T08:22:39.678Z,7.67
2019-04-11T08:25:27.929Z,4.90
2019-04-11T08:28:02.270Z,4.37
2019-04-11T08:30:37.082Z,4.50
2019-04-11T08:33:07.485Z,4.70
2019-04-11T08:35:57.131Z,4.57
2019-04-11T08:38:30.630Z,4.50
2019-04-11T08:41:19.772Z,4.30
2019-04-11T08:43:48.485Z,3.90
2019-04-11T08:46:28.846Z,5.40
2019-04-11T08:48:59.802Z,3.47
2019-04-11T08:51:31.593Z,3.20
2019-04-11T08:54:19.438Z,2.80
2019-04-11T08:56:49.403Z,3.40
2019-04-11T08:59:44.034Z,3.90
2019-04-11T09:02:28.962Z,3.80
2019-04-11T09:05:19.884Z,3.10
2019-04-11T09:07:58.099Z,1.50
2019-04-11T09:10:44.700Z,1.90
2019-04-11T09:13:34.068Z,3.43
2019-04-11T09:16:21.613Z,3.07
2019-04-11T09:18:50.945Z,2.17
2019-04-11T09:21:38.988Z,1.90
2019-04-11T09:24:22.384Z,7.27
2019-04-11T09:27:24.702Z,5.10
2019-04-11T09:29:59.513Z,2.83
2019-04-11T09:32:46.471Z,1.83
2019-04-11T09:35:25.251Z,1.60
2019-04-11T09:37:53.823Z,1.00
2019-04-11T09:40:41.633Z,1.40
2019-04-11T09:43:29.899Z,1.57
2019-04-11T09:46:26.107Z,1.60
2019-04-11T09:49:19.235Z,2.50
2019-04-11T09:52:22.736Z,1.70
2019-04-11T09:55:06.571Z,1.83
2019-04-11T09:57:41.904Z,1.50
2019-04-11T10:00:43.132Z,1.20
2019-04-11T10:03:19.691Z,1.30
2019-04-11T10:06:07.799Z,1.20
2019-04-11T10:08:55.621Z,1.20
2019-04-11T10:11:53.219Z,1.20
2019-04-11T10:14:23.726Z,1.30
2019-04-11T10:17:26.995Z,1.17
2019-04-11T10:20:04.691Z,2.47
2019-04-11T10:23:05.059Z,1.60
2019-04-11T10:25:40.397Z,3.60
2019-04-11T10:28:29.559Z,1.33
2019-04-11T10:31:06.245Z,1.80
2019-04-11T10:33:57.684Z,1.80
2019-04-11T10:36:33.295Z,2.10
2019-04-11T10:39:19.832Z,2.70
2019-04-11T10:41:51.270Z,1.60
2019-04-11T10:44:27.812Z,1.60
2019-04-11T10:47:22.910Z,1.83
2019-04-11T10:50:18.077Z,3.10
2019-04-11T10:52:53.009Z,2.30
2019-04-11T10:55:41.943Z,1.60
2019-04-11T10:58:33.136Z,1.77
2019-04-11T11:01:19.901Z,1.70
2019-04-11T11:04:19.970Z,1.70
2019-04-11T11:06:51.723Z,1.63
2019-04-11T11:09:32.402Z,1.70
2019-04-11T11:12:27.291Z,1.77
2019-04-11T11:15:17.944Z,1.70
2019-04-11T11:18:38.114Z,1.83
2019-04-11T11:20:55.218Z,1.60
2019-04-11T11:23:38.355Z,1.77
2019-04-11T11:26:19.347Z,1.37
2019-04-11T11:29:15.486Z,1.60
2019-04-11T11:32:11.727Z,1.70
2019-04-11T11:34:49.238Z,1.43
2019-04-11T11:37:35.407Z,1.40
2019-04-11T11:40:23.689Z,1.50
2019-04-11T11:43:14.806Z,1.30
2019-04-11T11:46:01.333Z,1.40
2019-04-11T11:48:41.776Z,1.47
2019-04-11T11:51:27.828Z,1.30
2019-04-11T11:54:11.459Z,1.20
2019-04-11T11:56:40.276Z,1.50
2019-04-11T11:59:38.483Z,1.33
2019-04-11T12:02:10.690Z,1.20
2019-04-11T12:04:56.419Z,1.40
2019-04-11T12:07:33.350Z,1.40
2019-04-11T12:10:17.449Z,1.90
2019-04-11T12:13:09.803Z,1.80
2019-04-11T12:16:00.004Z,1.60
2019-04-11T12:18:58.126Z,1.60
2019-04-11T12:21:31.270Z,1.85
2019-04-11T12:24:32.412Z,1.70
2019-04-11T12:27:20.553Z,1.55
2019-04-11T12:30:07.902Z,1.77
2019-04-11T12:32:41.769Z,2.33
2019-04-11T12:35:35.987Z,1.60
2019-04-11T12:38:30.607Z,1.50
2019-04-11T12:41:13.199Z,1.60
2019-04-11T12:44:06.890Z,1.70
2019-04-11T12:47:01.082Z,1.50
2019-04-11T12:49:53.066Z,1.50
2019-04-11T12:52:30.594Z,1.60
2019-04-11T12:54:59.542Z,1.30
2019-04-11T12:57:59.419Z,1.45
2019-04-11T13:00:44.755Z,1.20
2019-04-11T13:03:47.555Z,1.20
2019-04-11T13:06:35.102Z,1.40
2019-04-11T13:09:15.474Z,1.20
2019-04-11T13:11:45.379Z,1.20
2019-04-11T13:14:39.455Z,1.33
2019-04-11T13:17:12.341Z,1.30
2019-04-11T13:20:04.621Z,1.30
2019-04-11T13:22:29.466Z,1.37
2019-04-11T13:25:13.463Z,1.30
2019-04-11T13:27:46.267Z,1.25
2019-04-11T13:30:40.100Z,1.30
2019-04-11T13:33:23.506Z,1.30
2019-04-11T13:36:09.193Z,1.40
2019-04-11T13:38:51.676Z,1.67
2019-04-11T13:41:55.426Z,2.00
2019-04-11T13:44:26.964Z,1.20
2019-04-11T13:47:13.579Z,1.40
2019-04-11T13:49:50.049Z,2.10
2019-04-11T13:52:37.922Z,2.87
2019-04-11T13:55:27.047Z,11.33
2019-04-11T13:58:14.957Z,5.67
2019-04-11T14:00:53.277Z,24.80
2019-04-11T14:03:36.156Z,12.13
2019-04-11T14:06:24.164Z,14.83
2019-04-11T14:09:21.154Z,2.03
2019-04-11T14:11:51.520Z,2.00
2019-04-11T14:14:43.852Z,2.00
2019-04-11T14:17:28.909Z,1.63
2019-04-11T14:20:28.271Z,3.57
2019-04-11T14:23:09.146Z,1.30
2019-04-11T14:25:51.176Z,1.43
2019-04-11T14:28:19.852Z,1.50
2019-04-11T14:31:11.153Z,1.57
2019-04-11T14:33:43.161Z,2.60
2019-04-11T14:36:33.616Z,2.07
2019-04-11T14:39:01.030Z,1.50
2019-04-11T14:42:04.273Z,1.40
2019-04-11T14:44:33.689Z,1.40
2019-04-11T14:47:38.930Z,1.80
2019-04-11T14:50:08.792Z,2.30
2019-04-11T14:52:56.975Z,3.13
2019-04-11T14:55:25.827Z,4.70
2019-04-11T14:58:23.580Z,5.13
2019-04-11T15:00:53.773Z,3.03
2019-04-11T15:03:38.684Z,3.30
2019-04-11T15:06:26.738Z,3.47
2019-04-11T15:09:29.857Z,2.10
2019-04-11T15:12:18.447Z,1.83
2019-04-11T15:15:12.282Z,2.33
2019-04-11T15:17:41.276Z,3.27
2019-04-11T15:20:42.356Z,3.27
2019-04-11T15:23:14.495Z,3.13
2019-04-11T15:26:08.842Z,3.60
2019-04-11T15:28:52.257Z,3.10
2019-04-11T15:31:43.049Z,3.00
2019-04-11T15:34:49.395Z,3.60
2019-04-11T15:37:35.812Z,3.10
2019-04-11T15:40:12.885Z,2.77
2019-04-11T15:43:00.824Z,2.83
2019-04-11T15:45:37.102Z,3.07
2019-04-11T15:48:25.914Z,3.17
2019-04-11T15:51:13.359Z,3.33
2019-04-11T15:54:07.395Z,2.80
2019-04-11T15:56:44.614Z,2.70
2019-04-11T15:59:47.488Z,2.70
2019-04-11T16:02:35.555Z,2.63
2019-04-11T16:05:27.077Z,2.60
2019-04-11T16:08:27.098Z,3.10
2019-04-11T16:11:13.435Z,3.33
2019-04-11T16:14:10.371Z,3.53
2019-04-11T16:16:48.832Z,5.80
2019-04-11T16:19:35.322Z,3.03
2019-04-11T16:22:24.879Z,2.70
2019-04-11T16:24:55.977Z,3.03
2019-04-11T16:27:56.471Z,2.70
2019-04-11T16:30:26.299Z,3.10
2019-04-11T16:33:10.805Z,3.73
2019-04-11T16:35:50.437Z,3.60
2019-04-11T16:38:20.670Z,3.80
2019-04-11T16:41:14.585Z,3.43
2019-04-11T16:43:46.508Z,3.70
2019-04-11T16:46:34.500Z,3.93
2019-04-11T16:49:03.394Z,4.10
2019-04-11T16:51:50.451Z,3.60
2019-04-11T16:54:19.282Z,3.90
2019-04-11T16:56:48.821Z,4.07
2019-04-11T16:59:17.754Z,3.67
2019-04-11T17:01:47.805Z,4.90
2019-04-11T17:04:19.118Z,4.73
2019-04-11T17:07:10.259Z,4.80
2019-04-11T17:09:42.289Z,3.90
2019-04-11T17:12:14.647Z,3.57
2019-04-11T17:14:44.036Z,4.00
2019-04-11T17:17:15.323Z,3.70
2019-04-11T17:19:42.924Z,4.17
2019-04-11T17:22:11.938Z,4.03
2019-04-11T17:27:27.763Z,6.13
2019-04-11T17:29:56.309Z,6.20
2019-04-11T17:32:25.932Z,7.40
2019-04-11T17:34:56.139Z,8.70
2019-04-11T17:37:24.677Z,6.50
2019-04-11T17:42:43.648Z,7.37
2019-04-11T17:45:10.181Z,7.80
2019-04-11T17:47:38.766Z,7.07
2019-04-11T17:50:07.521Z,6.67
2019-04-11T17:52:36.071Z,7.33
2019-04-11T17:55:05.250Z,7.10
2019-04-11T17:57:33.776Z,6.40
2019-04-11T18:00:02.527Z,6.30
2019-04-11T18:02:33.308Z,6.50
2019-04-11T18:05:01.771Z,6.10
2019-04-11T18:07:31.334Z,6.53
2019-04-11T18:09:59.984Z,5.43
2019-04-11T18:12:28.439Z,5.63
2019-04-11T18:14:56.950Z,5.80
2019-04-11T18:17:44.391Z,6.13
2019-04-11T18:20:13.097Z,5.60
2019-04-11T18:22:43.737Z,6.80
2019-04-11T18:25:13.553Z,5.60
2019-04-11T18:27:42.362Z,6.73
2019-04-11T18:30:11.611Z,6.50
2019-04-11T18:32:41.030Z,5.90
2019-04-11T18:35:09.683Z,5.80
2019-04-11T18:37:38.203Z,5.83
2019-04-11T18:40:10.311Z,6.23
2019-04-11T18:45:24.493Z,6.63
2019-04-11T18:47:52.970Z,5.63
2019-04-11T18:50:23.035Z,5.70
2019-04-11T18:52:51.852Z,5.57
2019-04-11T18:55:20.344Z,4.87
2019-04-11T18:57:48.834Z,5.60
2019-04-11T19:00:21.202Z,5.70
2019-04-11T19:02:49.795Z,4.97
2019-04-11T19:05:28.139Z,4.87
2019-04-11T19:07:49.119Z,5.33
2019-04-11T19:10:17.781Z,5.00
2019-04-11T19:12:46.987Z,5.00
2019-04-11T19:15:17.046Z,4.37
2019-04-11T19:17:47.773Z,5.07
2019-04-11T19:20:18.691Z,4.37
2019-04-11T19:22:47.569Z,4.47
2019-04-11T19:25:16.134Z,4.63
2019-04-11T19:27:50.576Z,4.50
2019-04-11T19:30:16.622Z,5.07
2019-04-11T19:32:45.382Z,4.80
2019-04-11T19:35:13.974Z,5.30
2019-04-11T19:37:42.749Z,5.67
2019-04-11T19:40:11.479Z,6.10
2019-04-11T19:42:40.739Z,7.00
2019-04-11T19:45:10.120Z,7.20
2019-04-11T19:47:38.856Z,6.23
2019-04-11T19:50:09.451Z,7.03
2019-04-11T19:52:45.872Z,7.70
2019-04-11T19:55:22.654Z,7.20
2019-04-11T19:57:51.479Z,5.50
2019-04-11T20:00:22.267Z,5.60
2019-04-11T20:02:51.790Z,5.43
2019-04-11T20:05:21.599Z,10.73
2019-04-11T20:07:50.521Z,8.23
2019-04-11T20:10:22.651Z,5.73
2019-04-11T20:12:53.129Z,6.27
2019-04-11T20:15:21.879Z,5.17
2019-04-11T20:17:52.033Z,5.60
2019-04-11T20:20:21.017Z,5.70
2019-04-11T20:22:58.969Z,5.23
2019-04-11T20:25:21.385Z,6.30
2019-04-11T20:27:50.783Z,8.57
2019-04-11T20:30:19.877Z,6.60
2019-04-11T20:32:50.882Z,6.10
2019-04-11T20:35:28.478Z,6.87
2019-04-11T20:37:54.166Z,5.50
2019-04-11T20:40:22.534Z,6.20
2019-04-11T20:42:53.929Z,5.80
2019-04-11T20:45:24.264Z,6.00
2019-04-11T20:47:52.736Z,6.27
2019-04-11T20:50:23.410Z,5.70
2019-04-11T20:52:51.857Z,6.23
2019-04-11T20:55:20.352Z,6.50
2019-04-11T20:57:48.839Z,6.30
2019-04-11T21:00:17.533Z,6.30
2019-04-11T21:02:46.334Z,5.87
2019-04-11T21:05:17.119Z,6.33
2019-04-11T21:07:45.545Z,6.20
2019-04-11T21:10:14.105Z,6.53
2019-04-11T21:12:43.006Z,6.37
2019-04-11T21:15:11.709Z,7.63
2019-04-11T21:17:40.315Z,7.53
2019-04-11T21:20:27.446Z,7.53
2019-04-11T21:22:55.994Z,7.93
2019-04-11T21:25:26.140Z,7.70
2019-04-11T21:27:56.767Z,8.20
2019-04-11T21:30:27.973Z,9.03
2019-04-11T21:32:57.232Z,8.50
2019-04-11T21:35:25.788Z,9.17
2019-04-11T21:37:54.366Z,8.50
2019-04-11T21:40:23.039Z,9.50
2019-04-11T21:42:51.932Z,9.17
2019-04-11T21:45:20.591Z,9.47
2019-04-11T21:47:49.192Z,9.70
2019-04-11T21:50:18.035Z,9.43
2019-04-11T21:52:47.885Z,9.33
2019-04-11T21:55:16.517Z,10.10
2019-04-11T21:57:48.301Z,9.97
2019-04-11T22:00:23.092Z,10.60
2019-04-11T22:02:54.405Z,10.33
2019-04-11T22:05:23.668Z,10.07
2019-04-11T22:07:53.584Z,10.33
2019-04-11T22:10:22.186Z,10.40
2019-04-11T22:12:50.687Z,10.23
2019-04-11T22:15:19.187Z,10.43
2019-04-11T22:17:47.731Z,10.57
2019-04-11T22:20:16.835Z,10.87
2019-04-11T22:22:45.890Z,11.30
2019-04-11T22:25:16.179Z,11.80
2019-04-11T22:27:44.688Z,12.27
2019-04-11T22:30:15.109Z,12.30
2019-04-11T22:32:45.407Z,11.87
2019-04-11T22:35:13.897Z,12.40
2019-04-11T22:37:42.374Z,11.60
2019-04-11T22:40:11.047Z,11.30
2019-04-11T22:42:39.488Z,12.33
2019-04-11T22:45:08.464Z,11.63
2019-04-11T22:47:38.441Z,12.40
2019-04-11T22:50:09.846Z,12.77
2019-04-11T22:52:39.794Z,13.27
2019-04-11T22:55:11.109Z,12.93
2019-04-11T22:57:40.879Z,13.73
2019-04-11T23:00:14.825Z,13.43
2019-04-11T23:03:04.795Z,12.73
2019-04-11T23:05:33.183Z,12.57
2019-04-11T23:08:02.844Z,12.73
2019-04-11T23:10:31.480Z,13.13
2019-04-11T23:12:59.861Z,13.00
2019-04-11T23:15:30.933Z,13.20
2019-04-11T23:17:59.372Z,12.83
2019-04-11T23:20:28.996Z,12.77
2019-04-11T23:22:57.519Z,13.37
2019-04-11T23:25:25.937Z,13.53
2019-04-11T23:27:54.347Z,13.77
2019-04-11T23:30:22.811Z,14.27
2019-04-11T23:32:51.778Z,13.77
2019-04-11T23:35:21.202Z,13.40
2019-04-11T23:37:51.804Z,14.70
2019-04-11T23:40:21.758Z,15.10
2019-04-11T23:42:50.875Z,15.30
2019-04-11T23:45:22.969Z,16.00
2019-04-11T23:47:54.092Z,16.90
2019-04-11T23:50:24.905Z,16.63
2019-04-11T23:52:57.017Z,16.50
2019-04-11T23:55:23.266Z,16.10
2019-04-11T23:57:51.761Z,17.03
